Decoded Metar for SAZS (SAN CARLOS DE BARILOCH in ARGENTINA) (IATA:BRC) | Meteo·Mobile Aviation Weather
aviador You're here:

SAZS Decoded Metar

SAN CARLOS DE BARILOCH in ARGENTINA
Report Time2019-01-19 05:00:00
UTC Time2019-01-19 05:53:12
Flight Rules vfr VFR
Wind180° at 05 kt
W.Decomp.*RWY 11: 2.3 kt HW 4.4 kt RCW
W.Rank180° ranks 5
Current wind is below 180° avg. (5.5)
Visibility9999 m
Phenomena:N/A
Clouds:N/A
Expected CloudBase > 6,800 ft AGL from Temp-Dew spread
CeilingNone
Temp14°C (ISA +4)
Dew Point-3°C (31% RH)
AAT9.8°C
QNH1018 hPa
Density Alt3,189 ft
Elevation2,756 ft
Report Wrong Elevation
Raw Report
METAR SAZS 190500Z 18005KT CAVOK 14/M03 Q1018=

Extra information for SAZS:More info

Metar Taf Metar & Taf Last 4 Metars F.Rules Stats Wind Profile Meteogram Temp Stats Airport Information Weather charts Add Link Nearby VenuesMetar ALERT Operation Metar Decoded Social comments